Time;durP1;ratioP1;P1;durP2;ratioP2;P2;SDS_P1;SDS_P2;PMS_P1;PMS_P2;Temp;Humidity;BMP_temperature;BMP_pressure;BME280_temperature;BME280_humidity;BME280_pressure;Samples;Min_cycle;Max_cycle;Signal;HPM_P1;HPM_P2
2021/03/08 00:00:38;;;;;;;15.83;12.60;;;7.60;74.60;;;;;;5094750;28;20418;-76
2021/03/08 00:03:06;;;;;;;14.00;12.20;;;7.60;74.50;;;;;;5095075;28;20193;-75
2021/03/08 00:05:32;;;;;;;13.47;12.00;;;7.60;74.60;;;;;;5094469;28;20512;-76
2021/03/08 00:07:58;;;;;;;14.03;11.93;;;7.60;74.90;;;;;;5093738;28;20426;-75
2021/03/08 00:10:24;;;;;;;17.67;12.77;;;7.60;75.70;;;;;;5076575;28;20379;-75
2021/03/08 00:12:50;;;;;;;15.73;12.77;;;7.60;75.60;;;;;;5092353;28;20540;-75
2021/03/08 00:15:18;;;;;;;14.90;12.40;;;7.60;74.80;;;;;;5093387;28;20198;-75
2021/03/08 00:17:44;;;;;;;14.87;12.80;;;7.60;74.30;;;;;;5075841;28;20437;-75
2021/03/08 00:20:15;;;;;;;16.20;12.97;;;7.70;74.20;;;;;;5094432;28;20387;-74
2021/03/08 00:22:42;;;;;;;15.83;13.30;;;7.70;74.10;;;;;;5093996;28;20868;-75
2021/03/08 00:25:09;;;;;;;20.30;13.20;;;7.80;74.40;;;;;;5093771;28;20482;-75
2021/03/08 00:27:36;;;;;;;16.63;12.70;;;7.80;74.10;;;;;;5094025;28;20386;-72
2021/03/08 00:30:04;;;;;;;16.47;12.80;;;7.80;74.00;;;;;;5094521;28;20517;-72
2021/03/08 00:32:30;;;;;;;19.87;13.70;;;7.80;73.70;;;;;;5094089;28;20802;-74
2021/03/08 00:34:55;;;;;;;16.50;13.57;;;7.80;73.70;;;;;;5093543;28;20412;-75
2021/03/08 00:37:21;;;;;;;15.53;13.83;;;7.90;73.80;;;;;;5094375;28;20257;-74
2021/03/08 00:39:47;;;;;;;20.13;15.97;;;7.90;73.80;;;;;;5075737;28;20177;-74
2021/03/08 00:42:12;;;;;;;17.40;13.73;;;7.90;74.10;;;;;;5094209;28;20174;-75
2021/03/08 00:44:38;;;;;;;22.50;15.70;;;7.90;74.70;;;;;;5082296;28;20658;-75
2021/03/08 00:47:04;;;;;;;16.30;14.40;;;7.90;75.90;;;;;;5075774;28;20178;-75
2021/03/08 00:49:29;;;;;;;22.00;15.83;;;7.90;75.80;;;;;;5093494;28;20194;-76
2021/03/08 00:51:55;;;;;;;17.93;15.20;;;7.90;75.60;;;;;;5075731;28;20193;-74
2021/03/08 00:54:21;;;;;;;18.17;14.93;;;7.80;75.10;;;;;;5094178;28;20623;-75
2021/03/08 00:56:47;;;;;;;19.30;15.40;;;7.80;75.20;;;;;;5075416;28;20538;-75
2021/03/08 00:59:12;;;;;;;21.67;15.70;;;7.80;75.20;;;;;;5076071;28;20181;-75
2021/03/08 01:01:38;;;;;;;21.93;15.20;;;7.80;75.90;;;;;;5092866;28;20177;-75
2021/03/08 01:04:04;;;;;;;21.60;15.20;;;7.80;76.70;;;;;;5094013;28;20166;-74
2021/03/08 01:06:30;;;;;;;20.27;14.57;;;7.80;75.50;;;;;;5085446;28;20188;-77
2021/03/08 01:08:56;;;;;;;20.97;16.00;;;7.80;75.60;;;;;;5055559;28;20401;-75
2021/03/08 01:11:21;;;;;;;20.47;15.97;;;7.80;75.90;;;;;;5079344;28;20164;-75
2021/03/08 01:13:47;;;;;;;21.90;15.90;;;7.80;75.90;;;;;;5082455;28;20526;-74
2021/03/08 01:16:13;;;;;;;21.03;15.30;;;7.90;75.90;;;;;;5087439;28;20208;-75
2021/03/08 01:18:38;;;;;;;22.53;15.53;;;7.90;76.60;;;;;;5072640;28;20184;-75
2021/03/08 01:21:04;;;;;;;20.13;15.17;;;7.90;76.90;;;;;;5060093;28;20254;-75
2021/03/08 01:23:30;;;;;;;22.07;16.97;;;7.80;76.90;;;;;;5092804;28;20187;-75
2021/03/08 01:25:56;;;;;;;20.67;15.03;;;7.90;77.00;;;;;;5092904;28;20539;-75
2021/03/08 01:28:21;;;;;;;22.87;15.10;;;7.80;77.20;;;;;;5093007;28;20562;-74
2021/03/08 01:30:47;;;;;;;19.27;15.57;;;7.80;77.40;;;;;;5073811;28;20189;-75
2021/03/08 01:33:14;;;;;;;28.40;17.20;;;7.80;77.80;;;;;;5082808;28;20229;-75
2021/03/08 01:35:40;;;;;;;21.47;16.43;;;7.80;77.70;;;;;;5080123;28;20913;-75
2021/03/08 01:38:06;;;;;;;21.50;16.10;;;7.80;77.50;;;;;;5083156;28;20453;-75
2021/03/08 01:40:36;;;;;;;24.83;17.07;;;7.80;77.80;;;;;;5075014;28;20740;-76
2021/03/08 01:43:03;;;;;;;24.03;16.87;;;7.80;78.00;;;;;;5078739;28;20850;-74
2021/03/08 01:45:29;;;;;;;24.30;17.10;;;7.80;78.00;;;;;;5072803;28;20409;-75
2021/03/08 01:47:55;;;;;;;24.50;16.20;;;7.80;77.90;;;;;;5090219;28;20428;-75
2021/03/08 01:50:29;;;;;;;26.90;16.57;;;7.90;77.70;;;;;;5093164;28;20368;-75
2021/03/08 01:52:56;;;;;;;21.53;16.07;;;7.90;77.50;;;;;;5092593;28;20412;-75
2021/03/08 01:55:23;;;;;;;26.93;18.53;;;7.90;77.80;;;;;;5092669;28;20459;-75
2021/03/08 01:57:49;;;;;;;21.83;16.20;;;7.90;77.60;;;;;;5091869;28;20503;-76
2021/03/08 02:00:15;;;;;;;25.17;16.40;;;7.90;77.70;;;;;;5092901;28;20419;-76
2021/03/08 02:02:43;;;;;;;24.67;17.07;;;7.90;77.60;;;;;;5092082;28;20371;-77
2021/03/08 02:05:13;;;;;;;26.03;16.70;;;7.90;77.60;;;;;;5092892;28;20400;-76
2021/03/08 02:07:38;;;;;;;24.80;18.50;;;7.90;77.70;;;;;;5091350;28;20482;-76
2021/03/08 02:10:06;;;;;;;23.57;16.20;;;7.80;77.90;;;;;;5092518;28;20393;-76
2021/03/08 02:12:46;;;;;;;23.30;16.43;;;7.80;78.30;;;;;;5092190;28;20180;-77
2021/03/08 02:15:36;;;;;;;21.07;15.70;;;7.80;78.60;;;;;;5092591;28;20401;-76
2021/03/08 02:18:22;;;;;;;21.77;17.30;;;7.70;78.70;;;;;;5080675;28;20473;-76
2021/03/08 02:20:51;;;;;;;21.70;16.37;;;7.70;79.00;;;;;;5091845;28;20407;-76
2021/03/08 02:24:07;;;;;;;25.63;16.20;;;7.70;79.30;;;;;;5092213;28;20398;-76
2021/03/08 02:26:39;;;;;;;22.90;16.33;;;7.70;79.80;;;;;;5010066;28;20398;-76
2021/03/08 02:29:42;;;;;;;25.13;16.90;;;7.70;78.70;;;;;;5048405;28;20423;-76
2021/03/08 02:32:10;;;;;;;22.70;16.30;;;7.70;78.50;;;;;;5090389;28;20428;-76
2021/03/08 02:34:45;;;;;;;21.90;15.90;;;7.80;79.00;;;;;;5081184;28;20479;-76
2021/03/08 02:37:16;;;;;;;23.23;16.40;;;7.80;78.80;;;;;;5080261;28;20436;-76
2021/03/08 02:39:47;;;;;;;24.30;17.33;;;7.80;78.50;;;;;;5078806;28;20389;-76
2021/03/08 02:42:21;;;;;;;25.03;17.60;;;7.80;78.50;;;;;;5083380;28;20422;-77
2021/03/08 02:44:49;;;;;;;27.60;19.00;;;7.80;78.70;;;;;;5066973;28;20708;-74
2021/03/08 02:47:17;;;;;;;24.77;17.83;;;7.70;78.40;;;;;;5089111;28;20490;-74
2021/03/08 02:49:46;;;;;;;25.30;18.13;;;7.70;78.50;;;;;;5091422;28;20412;-75
2021/03/08 02:52:15;;;;;;;25.60;17.80;;;7.70;78.60;;;;;;5092315;28;20412;-75
2021/03/08 02:54:48;;;;;;;28.33;18.40;;;7.70;80.00;;;;;;5072381;28;20404;-75
2021/03/08 02:57:19;;;;;;;24.37;15.93;;;7.70;79.60;;;;;;5092162;28;20507;-75
2021/03/08 02:59:49;;;;;;;24.10;17.07;;;7.70;79.10;;;;;;5091136;28;20451;-75
2021/03/08 03:02:17;;;;;;;26.83;17.90;;;7.70;78.60;;;;;;5092249;28;20367;-74
2021/03/08 03:04:46;;;;;;;25.13;17.00;;;7.80;79.00;;;;;;5091056;28;20719;-75
2021/03/08 03:07:13;;;;;;;26.57;16.60;;;7.80;79.10;;;;;;5092105;28;20392;-75
2021/03/08 03:09:41;;;;;;;23.93;16.40;;;7.70;79.10;;;;;;5091196;28;20428;-75
2021/03/08 03:12:08;;;;;;;24.90;17.90;;;7.70;79.00;;;;;;5091940;28;20413;-74
2021/03/08 03:14:35;;;;;;;27.73;17.90;;;7.70;79.10;;;;;;5091121;28;20404;-75
2021/03/08 03:17:09;;;;;;;26.07;18.00;;;7.80;79.10;;;;;;5091585;28;20936;-74
2021/03/08 03:19:40;;;;;;;23.83;17.23;;;7.70;79.10;;;;;;5091574;28;20392;-74
2021/03/08 03:22:08;;;;;;;26.53;18.13;;;7.70;79.20;;;;;;5091747;28;20810;-75
2021/03/08 03:24:36;;;;;;;22.33;16.87;;;7.70;79.40;;;;;;5092064;28;20443;-74
2021/03/08 03:27:03;;;;;;;26.13;18.57;;;7.70;79.30;;;;;;5091545;28;20440;-75
2021/03/08 03:29:33;;;;;;;27.33;17.40;;;7.70;79.50;;;;;;5091758;28;20400;-74
2021/03/08 03:32:00;;;;;;;26.30;18.60;;;7.70;80.80;;;;;;5091073;28;20432;-75
2021/03/08 03:34:26;;;;;;;26.47;18.30;;;7.70;80.10;;;;;;5091859;28;20483;-74
2021/03/08 03:36:52;;;;;;;27.77;18.67;;;7.70;80.30;;;;;;5073050;28;20454;-75
2021/03/08 03:39:19;;;;;;;27.00;17.80;;;7.60;80.20;;;;;;5091173;28;20516;-75
2021/03/08 03:41:45;;;;;;;23.40;17.60;;;7.70;80.10;;;;;;5090635;28;20471;-75
2021/03/08 03:44:12;;;;;;;22.97;17.23;;;7.70;80.10;;;;;;5094904;28;20424;-75
2021/03/08 03:46:40;;;;;;;26.60;18.60;;;7.70;80.40;;;;;;5094956;28;20412;-76
2021/03/08 03:49:06;;;;;;;25.67;18.53;;;7.70;80.30;;;;;;5094575;28;20561;-72
2021/03/08 03:51:32;;;;;;;24.53;18.50;;;7.70;80.30;;;;;;5076864;28;20379;-75
2021/03/08 03:53:58;;;;;;;27.07;18.17;;;7.70;80.60;;;;;;5094516;28;20415;-75
2021/03/08 03:56:28;;;;;;;26.70;19.00;;;7.60;80.90;;;;;;5094776;28;20217;-75
2021/03/08 03:59:03;;;;;;;26.50;18.77;;;7.70;81.10;;;;;;5090999;28;20175;-75
2021/03/08 04:01:55;;;;;;;27.27;18.43;;;7.70;81.00;;;;;;5074473;28;20398;-73
2021/03/08 04:04:27;;;;;;;25.13;18.73;;;7.70;80.70;;;;;;5074894;28;20450;-73
2021/03/08 04:06:54;;;;;;;30.40;19.63;;;7.60;80.60;;;;;;5074145;28;20393;-73
2021/03/08 04:09:22;;;;;;;28.63;19.90;;;7.60;80.60;;;;;;5074801;28;20821;-73
2021/03/08 04:11:52;;;;;;;26.60;19.47;;;7.60;80.80;;;;;;5078061;28;20482;-73
2021/03/08 04:14:21;;;;;;;26.20;19.37;;;7.60;81.10;;;;;;5076863;28;20400;-73
2021/03/08 04:16:50;;;;;;;23.70;18.43;;;7.70;81.40;;;;;;5094026;28;20525;-73
2021/03/08 04:19:20;;;;;;;26.23;20.30;;;7.60;81.40;;;;;;5094966;28;20407;-73
2021/03/08 04:21:48;;;;;;;28.23;20.80;;;7.60;81.80;;;;;;5093769;28;20759;-73
2021/03/08 04:24:16;;;;;;;26.50;19.33;;;7.60;82.40;;;;;;5082297;28;20397;-73
2021/03/08 04:26:42;;;;;;;29.43;19.67;;;7.60;82.60;;;;;;5073598;28;20424;-73
2021/03/08 04:29:08;;;;;;;25.87;20.43;;;7.60;82.20;;;;;;5074572;28;20374;-73
2021/03/08 04:31:35;;;;;;;29.37;20.30;;;7.60;82.30;;;;;;5074288;28;20458;-73
2021/03/08 04:34:02;;;;;;;26.40;19.17;;;7.60;82.20;;;;;;5073349;28;20392;-73
2021/03/08 04:36:29;;;;;;;25.67;18.80;;;7.60;82.20;;;;;;5086005;28;20418;-73
2021/03/08 04:38:55;;;;;;;30.57;20.93;;;7.70;82.10;;;;;;5093715;28;20970;-73
2021/03/08 04:41:21;;;;;;;28.80;19.27;;;7.70;82.20;;;;;;5076457;28;20415;-73
2021/03/08 04:43:47;;;;;;;26.27;19.77;;;7.70;82.00;;;;;;5093452;28;20409;-73
2021/03/08 04:46:14;;;;;;;32.83;21.07;;;7.70;82.10;;;;;;5094059;28;20400;-73
2021/03/08 04:48:41;;;;;;;26.97;19.73;;;7.70;82.20;;;;;;5093291;28;20423;-73
2021/03/08 04:51:08;;;;;;;29.90;21.53;;;7.70;82.30;;;;;;5094331;28;20420;-73
2021/03/08 04:53:35;;;;;;;25.00;18.67;;;7.70;82.10;;;;;;5093929;28;20427;-73
2021/03/08 04:56:02;;;;;;;30.83;21.33;;;7.70;82.10;;;;;;5074688;28;20388;-73
2021/03/08 04:58:31;;;;;;;27.50;20.20;;;7.70;82.20;;;;;;5093717;28;20986;-73
2021/03/08 05:00:58;;;;;;;29.20;20.83;;;7.70;82.10;;;;;;5092990;28;20470;-73
2021/03/08 05:03:25;;;;;;;27.20;21.20;;;7.80;82.20;;;;;;5093755;28;20380;-73
2021/03/08 05:05:53;;;;;;;29.53;19.60;;;7.80;82.20;;;;;;5093272;28;20409;-73
2021/03/08 05:08:20;;;;;;;29.37;20.87;;;7.80;82.50;;;;;;5093911;28;20411;-73
2021/03/08 05:10:47;;;;;;;28.97;20.83;;;7.70;82.10;;;;;;5092805;28;20391;-73
2021/03/08 05:13:15;;;;;;;31.50;21.93;;;7.70;82.20;;;;;;5093264;28;20394;-73
2021/03/08 05:15:41;;;;;;;28.07;20.60;;;7.70;82.60;;;;;;5092805;28;20448;-73
2021/03/08 05:18:07;;;;;;;28.30;19.90;;;7.70;82.90;;;;;;5093017;28;20460;-73
2021/03/08 05:20:36;;;;;;;30.27;20.57;;;7.70;83.10;;;;;;5093798;28;20722;-73
2021/03/08 05:23:03;;;;;;;30.80;21.90;;;7.70;83.20;;;;;;5092872;28;20409;-73
2021/03/08 05:25:30;;;;;;;34.00;22.57;;;7.70;83.50;;;;;;5074694;28;20437;-73
2021/03/08 05:27:56;;;;;;;32.40;22.57;;;7.70;83.80;;;;;;5092821;28;20723;-73
2021/03/08 05:30:23;;;;;;;30.07;20.23;;;7.70;83.90;;;;;;5093604;28;20413;-73
2021/03/08 05:33:07;;;;;;;28.97;21.60;;;7.70;83.90;;;;;;5092320;28;20400;-73
2021/03/08 05:35:35;;;;;;;31.90;21.33;;;7.70;83.90;;;;;;5091996;28;20433;-73
2021/03/08 05:38:03;;;;;;;30.70;22.27;;;7.70;84.00;;;;;;5073813;28;20448;-72
2021/03/08 05:40:41;;;;;;;29.40;21.57;;;7.70;84.10;;;;;;5093366;28;20789;-73
2021/03/08 05:43:14;;;;;;;33.30;23.63;;;7.70;84.50;;;;;;5092198;28;20485;-73
2021/03/08 05:46:11;;;;;;;30.70;20.80;;;7.70;84.60;;;;;;5092968;28;20719;-73
2021/03/08 05:48:48;;;;;;;31.37;22.37;;;7.70;84.60;;;;;;5074213;28;20426;-73
2021/03/08 05:51:29;;;;;;;33.37;23.17;;;7.70;84.70;;;;;;5093541;28;20400;-73
2021/03/08 05:54:13;;;;;;;33.80;22.20;;;7.70;84.80;;;;;;5091836;28;20493;-73
2021/03/08 05:56:57;;;;;;;30.07;21.60;;;7.70;85.30;;;;;;5093123;28;20484;-73
2021/03/08 06:00:04;;;;;;;30.33;21.23;;;7.70;85.00;;;;;;5093077;28;20409;-74
2021/03/08 06:02:35;;;;;;;29.43;21.07;;;7.70;85.40;;;;;;5002237;28;20442;-72
2021/03/08 06:05:28;;;;;;;30.57;22.10;;;7.70;85.60;;;;;;5092444;28;20470;-73
2021/03/08 06:08:03;;;;;;;34.90;23.27;;;7.70;86.00;;;;;;5091458;28;20412;-73
2021/03/08 06:10:33;;;;;;;31.67;22.33;;;7.70;86.10;;;;;;5092471;28;20500;-73
2021/03/08 06:13:06;;;;;;;30.13;21.30;;;7.70;86.00;;;;;;5091277;28;20931;-73
2021/03/08 06:15:35;;;;;;;34.27;22.00;;;7.70;86.00;;;;;;5092674;28;20382;-73
2021/03/08 06:18:07;;;;;;;35.60;24.00;;;7.70;86.10;;;;;;5085137;28;20496;-73
2021/03/08 06:20:33;;;;;;;33.60;22.97;;;7.70;86.30;;;;;;5092467;28;20376;-73
2021/03/08 06:23:00;;;;;;;32.30;22.20;;;7.70;86.50;;;;;;5091740;28;20405;-73
2021/03/08 06:25:27;;;;;;;36.40;21.63;;;7.70;87.90;;;;;;5093056;28;20402;-73
2021/03/08 06:27:57;;;;;;;30.20;21.80;;;7.70;87.20;;;;;;5091157;28;20751;-73
2021/03/08 06:30:24;;;;;;;37.20;23.43;;;7.60;87.60;;;;;;5092069;28;20420;-73
2021/03/08 06:32:51;;;;;;;32.17;21.90;;;7.60;88.80;;;;;;5073096;28;20508;-73
2021/03/08 06:35:17;;;;;;;32.87;23.40;;;7.60;89.90;;;;;;5092703;28;20404;-73
2021/03/08 06:37:46;;;;;;;32.70;22.67;;;7.60;90.30;;;;;;5073072;28;20474;-73
2021/03/08 06:40:15;;;;;;;36.60;23.70;;;7.60;90.70;;;;;;5091885;28;20735;-73
2021/03/08 06:42:42;;;;;;;36.83;23.07;;;7.50;91.20;;;;;;5092371;28;20411;-73
2021/03/08 06:45:09;;;;;;;31.10;22.27;;;7.50;91.60;;;;;;5090950;28;20390;-73
2021/03/08 06:47:35;;;;;;;33.27;22.67;;;7.50;92.00;;;;;;5090621;28;20464;-73
2021/03/08 06:50:01;;;;;;;37.43;22.63;;;7.50;92.30;;;;;;5074330;28;20804;-73
2021/03/08 06:52:43;;;;;;;34.40;23.10;;;7.40;92.60;;;;;;5088153;28;20409;-73
2021/03/08 06:55:10;;;;;;;34.77;23.30;;;7.40;93.10;;;;;;5091497;28;20376;-73
2021/03/08 06:57:36;;;;;;;33.23;22.50;;;7.40;93.50;;;;;;5076305;28;20480;-73
2021/03/08 07:00:12;;;;;;;34.40;24.20;;;7.40;93.60;;;;;;5073094;28;20416;-73
2021/03/08 07:02:43;;;;;;;38.63;25.70;;;7.30;93.60;;;;;;5083817;28;20413;-73
2021/03/08 07:05:11;;;;;;;35.10;24.27;;;7.30;93.70;;;;;;5083459;28;20733;-73
2021/03/08 07:07:59;;;;;;;33.60;22.70;;;7.40;93.80;;;;;;5091864;28;20419;-73
2021/03/08 07:10:33;;;;;;;37.63;23.67;;;7.30;93.80;;;;;;5091950;28;20857;-73
2021/03/08 07:12:59;;;;;;;35.50;25.70;;;7.30;94.00;;;;;;5091224;28;20411;-73
2021/03/08 07:15:25;;;;;;;36.43;24.90;;;7.40;94.10;;;;;;5091099;28;20464;-73
2021/03/08 07:17:51;;;;;;;35.60;25.90;;;7.30;94.00;;;;;;5092548;28;20490;-73
2021/03/08 07:20:17;;;;;;;34.70;23.87;;;7.40;94.00;;;;;;5096351;28;20400;-73
2021/03/08 07:22:54;;;;;;;39.53;25.03;;;7.40;94.00;;;;;;5096277;28;20178;-73
2021/03/08 07:25:21;;;;;;;35.93;25.47;;;7.40;94.00;;;;;;5077800;28;20418;-73
2021/03/08 07:28:02;;;;;;;36.47;24.70;;;7.40;94.10;;;;;;5095542;28;20387;-73
2021/03/08 07:30:33;;;;;;;33.70;23.50;;;7.40;94.10;;;;;;5096156;28;20413;-73
2021/03/08 07:33:04;;;;;;;37.83;24.27;;;7.40;94.10;;;;;;5095497;28;20414;-73
2021/03/08 07:35:45;;;;;;;35.03;25.43;;;7.50;94.30;;;;;;5095699;28;20881;-73
2021/03/08 07:38:33;;;;;;;34.67;23.37;;;7.40;94.40;;;;;;5095824;28;20434;-73
2021/03/08 07:41:13;;;;;;;35.97;22.80;;;7.40;94.50;;;;;;5095401;28;20404;-73
2021/03/08 07:43:40;;;;;;;33.13;24.37;;;7.40;94.60;;;;;;5094744;28;20749;-73
2021/03/08 07:46:25;;;;;;;37.47;24.23;;;7.40;94.80;;;;;;5094666;28;20523;-72
2021/03/08 07:48:50;;;;;;;36.57;26.37;;;7.40;94.90;;;;;;5094359;28;20407;-73
2021/03/08 07:51:16;;;;;;;38.17;25.47;;;7.40;95.00;;;;;;5095503;28;20411;-72
2021/03/08 07:53:42;;;;;;;38.10;24.63;;;7.40;95.10;;;;;;5095322;28;20197;-72
2021/03/08 07:56:09;;;;;;;35.80;25.50;;;7.30;95.20;;;;;;5091535;28;20183;-73
2021/03/08 07:58:37;;;;;;;39.80;24.27;;;7.40;95.40;;;;;;5068942;28;20186;-73
2021/03/08 08:01:06;;;;;;;37.50;24.93;;;7.40;95.50;;;;;;5075846;28;20383;-72
2021/03/08 08:03:32;;;;;;;37.27;23.53;;;7.30;95.50;;;;;;5074865;28;20418;-73
2021/03/08 08:06:09;;;;;;;38.93;25.17;;;7.30;95.70;;;;;;5088234;28;20715;-73
2021/03/08 08:08:39;;;;;;;38.50;24.67;;;7.30;95.90;;;;;;5090764;28;20884;-73
2021/03/08 08:11:06;;;;;;;36.57;25.97;;;7.30;95.80;;;;;;5094298;28;20393;-72
2021/03/08 08:13:41;;;;;;;36.17;25.93;;;7.30;95.70;;;;;;5095000;28;20415;-73
2021/03/08 08:16:08;;;;;;;34.83;23.70;;;7.30;95.70;;;;;;5093519;28;20627;-73
2021/03/08 08:18:42;;;;;;;36.90;26.40;;;7.30;95.50;;;;;;5094925;28;20248;-73
2021/03/08 08:21:13;;;;;;;37.33;24.20;;;7.30;95.50;;;;;;5093732;28;20377;-74
2021/03/08 08:23:45;;;;;;;35.53;24.77;;;7.30;95.40;;;;;;5081672;28;20425;-74
2021/03/08 08:26:16;;;;;;;36.73;25.53;;;7.30;95.40;;;;;;5087592;28;20393;-74
2021/03/08 08:28:47;;;;;;;38.70;25.37;;;7.40;95.60;;;;;;5092567;28;20383;-75
2021/03/08 08:31:13;;;;;;;37.87;25.83;;;7.40;95.60;;;;;;5076643;28;20371;-74
2021/03/08 08:33:39;;;;;;;41.17;25.67;;;7.40;95.50;;;;;;5071015;28;20390;-74
2021/03/08 08:36:31;;;;;;;37.30;24.43;;;7.40;95.40;;;;;;5074100;28;20487;-74
2021/03/08 08:38:59;;;;;;;38.70;25.90;;;7.40;95.60;;;;;;5070469;28;20221;-74
2021/03/08 08:41:28;;;;;;;40.93;24.97;;;7.50;95.70;;;;;;5068130;28;20438;-73
2021/03/08 08:44:15;;;;;;;43.93;27.27;;;7.40;95.70;;;;;;5093838;28;20391;-73
2021/03/08 08:46:45;;;;;;;39.87;25.47;;;7.50;95.70;;;;;;5074654;28;20488;-74
2021/03/08 08:49:18;;;;;;;38.80;27.17;;;7.50;95.90;;;;;;5087039;28;20450;-74
2021/03/08 08:51:49;;;;;;;41.80;26.93;;;7.50;95.90;;;;;;5088971;28;20868;-74
2021/03/08 08:54:27;;;;;;;44.13;25.97;;;7.40;95.90;;;;;;5074029;28;20876;-74
2021/03/08 08:57:03;;;;;;;38.30;26.30;;;7.50;96.10;;;;;;5074007;28;21000;-73
2021/03/08 08:59:32;;;;;;;39.07;26.10;;;7.50;96.10;;;;;;5083686;28;20399;-74
2021/03/08 09:02:24;;;;;;;40.67;26.83;;;7.50;96.10;;;;;;5089181;28;20391;-75
2021/03/08 09:04:50;;;;;;;42.97;27.15;;;7.50;96.20;;;;;;5073403;28;20398;-73
2021/03/08 09:07:26;;;;;;;43.13;26.40;;;7.40;96.30;;;;;;5092154;28;20627;-74
2021/03/08 09:10:00;;;;;;;42.30;27.20;;;7.50;96.40;;;;;;5079522;28;20178;-76
2021/03/08 09:12:40;;;;;;;39.87;26.90;;;7.50;96.60;;;;;;5083601;28;20402;-74
2021/03/08 09:15:12;;;;;;;39.13;25.87;;;7.50;96.70;;;;;;5092118;28;20443;-74
2021/03/08 09:17:45;;;;;;;42.03;26.77;;;7.50;96.80;;;;;;5093926;28;20457;-74
2021/03/08 09:20:13;;;;;;;45.20;28.33;;;7.50;96.90;;;;;;5093420;28;20426;-74
2021/03/08 09:22:50;;;;;;;44.63;30.30;;;7.60;96.90;;;;;;5077305;28;20500;-73
2021/03/08 09:25:24;;;;;;;44.93;28.77;;;7.60;96.80;;;;;;5080321;28;20428;-73
2021/03/08 09:28:03;;;;;;;43.80;28.80;;;7.60;96.70;;;;;;5089917;28;20410;-73
2021/03/08 09:30:38;;;;;;;52.70;29.90;;;7.60;96.90;;;;;;5085571;28;20892;-71
2021/03/08 09:33:16;;;;;;;46.47;29.67;;;7.60;97.10;;;;;;5091887;28;20399;-71
2021/03/08 09:35:44;;;;;;;45.17;28.53;;;7.60;97.20;;;;;;5091009;28;20867;-71
2021/03/08 09:38:18;;;;;;;45.77;30.13;;;7.60;97.10;;;;;;5092661;28;20464;-71
2021/03/08 09:40:52;;;;;;;45.77;27.53;;;7.60;97.20;;;;;;5093620;28;20415;-71
2021/03/08 09:43:20;;;;;;;47.83;28.10;;;7.60;97.40;;;;;;5093682;28;20398;-71
2021/03/08 09:45:59;;;;;;;45.47;29.00;;;7.60;97.50;;;;;;5092724;28;20402;-71
2021/03/08 09:48:25;;;;;;;45.77;26.77;;;7.60;97.60;;;;;;5093071;28;20416;-71
2021/03/08 09:50:51;;;;;;;44.47;29.27;;;7.60;97.80;;;;;;5092088;28;20465;-71
2021/03/08 09:53:17;;;;;;;46.27;28.10;;;7.70;97.70;;;;;;5092394;28;20407;-71
2021/03/08 09:55:43;;;;;;;44.70;29.00;;;7.70;97.80;;;;;;5092743;28;20393;-71
2021/03/08 09:58:15;;;;;;;42.90;27.80;;;7.70;97.80;;;;;;5092747;28;20199;-71
2021/03/08 10:00:45;;;;;;;45.77;27.33;;;7.70;97.70;;;;;;5093367;28;20181;-71
2021/03/08 10:03:12;;;;;;;51.20;30.10;;;7.80;98.00;;;;;;5088659;28;20380;-71
2021/03/08 10:05:42;;;;;;;48.00;29.10;;;7.70;97.90;;;;;;5085100;28;20420;-71
2021/03/08 10:08:09;;;;;;;48.07;26.67;;;7.70;98.00;;;;;;5085756;28;20412;-71
2021/03/08 10:10:53;;;;;;;50.23;29.57;;;7.70;98.20;;;;;;5084404;28;20410;-71
2021/03/08 10:13:20;;;;;;;45.40;27.80;;;7.70;98.10;;;;;;5092668;28;20748;-71
2021/03/08 10:15:57;;;;;;;53.70;30.43;;;7.70;98.00;;;;;;5085868;28;20444;-71
2021/03/08 10:18:28;;;;;;;51.33;29.30;;;7.80;98.20;;;;;;5092627;28;20999;-71
2021/03/08 10:21:03;;;;;;;44.47;28.67;;;7.80;98.40;;;;;;5077225;28;20414;-71
2021/03/08 10:23:31;;;;;;;48.53;30.53;;;7.80;98.70;;;;;;5073889;28;20400;-71
2021/03/08 10:26:08;;;;;;;49.57;30.43;;;7.80;98.50;;;;;;5075612;28;20417;-71
2021/03/08 10:28:44;;;;;;;44.37;27.47;;;7.80;98.40;;;;;;5090138;28;20486;-71
2021/03/08 10:31:23;;;;;;;50.63;29.70;;;7.90;98.30;;;;;;5086454;28;20397;-71
2021/03/08 10:34:02;;;;;;;50.27;29.43;;;7.90;98.20;;;;;;5088517;28;20383;-71
2021/03/08 10:36:34;;;;;;;51.27;29.07;;;7.90;98.20;;;;;;5079812;28;20514;-71
2021/03/08 10:39:03;;;;;;;48.63;29.67;;;7.90;98.20;;;;;;5075291;28;20457;-71
2021/03/08 10:41:30;;;;;;;50.00;31.17;;;7.90;98.40;;;;;;5092593;28;20460;-71
2021/03/08 10:43:58;;;;;;;54.70;29.77;;;7.90;98.40;;;;;;5077584;28;20438;-71
2021/03/08 10:46:30;;;;;;;52.17;29.10;;;8.00;98.40;;;;;;5072447;28;20445;-71
2021/03/08 10:49:04;;;;;;;59.60;31.90;;;8.00;98.40;;;;;;5054129;28;20725;-71
2021/03/08 10:51:33;;;;;;;60.90;33.17;;;8.00;98.30;;;;;;5072623;28;20393;-71
2021/03/08 10:54:03;;;;;;;56.33;35.75;;;8.00;98.10;;;;;;5084413;28;20398;-71
2021/03/08 10:56:30;;;;;;;53.20;31.80;;;8.10;98.20;;;;;;5092458;28;20203;-71
2021/03/08 10:58:57;;;;;;;52.80;31.40;;;8.20;98.00;;;;;;5074014;28;20413;-71
2021/03/08 11:01:24;;;;;;;52.37;30.37;;;8.20;98.00;;;;;;5092590;28;20718;-71
2021/03/08 11:03:51;;;;;;;48.27;29.60;;;8.20;98.10;;;;;;5061185;28;20389;-73
2021/03/08 11:06:19;;;;;;;55.87;30.70;;;8.30;98.00;;;;;;5071744;28;20793;-73
2021/03/08 11:08:59;;;;;;;53.23;30.23;;;8.30;98.10;;;;;;5072331;28;20736;-71
2021/03/08 11:11:33;;;;;;;46.90;28.87;;;8.20;98.20;;;;;;5072566;28;20722;-71
2021/03/08 11:14:04;;;;;;;50.77;28.87;;;8.20;98.10;;;;;;5067240;28;20383;-71
2021/03/08 11:16:32;;;;;;;53.60;32.33;;;8.30;98.30;;;;;;5079184;28;20455;-71
2021/03/08 11:19:20;;;;;;;55.77;28.80;;;8.30;98.30;;;;;;5071373;28;20730;-71
2021/03/08 11:22:03;;;;;;;50.83;29.10;;;8.30;98.00;;;;;;5072427;28;20532;-71
2021/03/08 11:24:32;;;;;;;51.83;31.77;;;8.30;97.90;;;;;;5082628;28;20436;-73
2021/03/08 11:27:17;;;;;;;51.13;29.00;;;8.30;98.20;;;;;;5071584;28;20401;-71
2021/03/08 11:29:57;;;;;;;49.87;29.30;;;8.30;98.30;;;;;;5086981;28;20416;-71
2021/03/08 11:32:25;;;;;;;55.30;31.07;;;8.30;98.20;;;;;;5072158;28;20754;-71
2021/03/08 11:34:52;;;;;;;50.17;30.03;;;8.30;98.10;;;;;;5073253;28;20426;-71
2021/03/08 11:37:20;;;;;;;50.83;28.73;;;8.40;98.10;;;;;;5056986;28;20818;-71
2021/03/08 11:39:49;;;;;;;55.40;30.30;;;8.40;98.10;;;;;;5082309;28;20929;-71
2021/03/08 11:42:17;;;;;;;54.77;30.83;;;8.40;98.10;;;;;;5078420;28;20413;-73
2021/03/08 11:44:43;;;;;;;47.50;28.90;;;8.40;98.00;;;;;;5088042;28;20748;-71
2021/03/08 11:47:09;;;;;;;54.70;32.50;;;8.50;98.00;;;;;;5079427;28;20482;-71
2021/03/08 11:49:35;;;;;;;50.03;31.10;;;8.50;98.00;;;;;;5090960;28;20888;-71
2021/03/08 11:52:02;;;;;;;49.73;30.37;;;8.50;98.10;;;;;;5079726;28;20180;-71
2021/03/08 11:54:28;;;;;;;49.67;32.10;;;8.50;98.10;;;;;;5053701;28;20446;-71
2021/03/08 11:56:54;;;;;;;47.50;28.97;;;8.50;98.30;;;;;;5091662;28;20491;-71
2021/03/08 11:59:20;;;;;;;45.23;28.23;;;8.50;98.20;;;;;;5077510;28;20176;-71
2021/03/08 12:01:46;;;;;;;43.37;28.30;;;8.50;98.20;;;;;;5080801;28;20187;-72
2021/03/08 12:04:11;;;;;;;46.87;26.40;;;8.60;98.30;;;;;;5090896;28;20172;-72
2021/03/08 12:06:37;;;;;;;43.67;27.63;;;8.60;97.80;;;;;;5095155;28;20388;-72
2021/03/08 12:09:03;;;;;;;44.60;29.60;;;8.60;97.40;;;;;;5094798;28;20860;-71
2021/03/08 12:11:29;;;;;;;46.10;27.20;;;8.60;97.50;;;;;;5093347;28;20164;-71
2021/03/08 12:13:55;;;;;;;42.73;26.77;;;8.60;97.30;;;;;;5095336;28;21007;-71
2021/03/08 12:16:21;;;;;;;45.00;25.67;;;8.50;97.40;;;;;;5094690;28;20515;-70
2021/03/08 12:18:48;;;;;;;39.87;25.53;;;8.60;97.40;;;;;;5095398;28;20417;-70
2021/03/08 12:21:14;;;;;;;40.50;24.80;;;8.60;97.60;;;;;;5090693;28;20180;-74
2021/03/08 12:23:40;;;;;;;44.80;26.20;;;8.70;98.10;;;;;;5078418;28;20512;-74
2021/03/08 12:26:05;;;;;;;41.97;25.30;;;8.70;98.00;;;;;;5092224;28;20555;-72
2021/03/08 12:28:31;;;;;;;39.07;23.47;;;8.80;98.10;;;;;;5093952;28;20894;-71
2021/03/08 12:30:57;;;;;;;43.40;24.67;;;8.90;97.70;;;;;;5073310;28;20419;-72
2021/03/08 12:33:23;;;;;;;37.93;24.33;;;9.00;97.40;;;;;;5074893;28;20431;-71
2021/03/08 12:35:49;;;;;;;37.97;24.53;;;9.10;97.60;;;;;;5076986;28;20902;-72
2021/03/08 12:38:15;;;;;;;36.40;22.53;;;9.20;97.90;;;;;;5087299;28;20440;-72
2021/03/08 12:40:41;;;;;;;41.03;25.23;;;9.30;97.60;;;;;;5092428;28;20744;-72
2021/03/08 12:43:07;;;;;;;34.13;23.53;;;9.40;97.80;;;;;;5093908;28;20472;-72
2021/03/08 12:45:34;;;;;;;32.50;21.70;;;9.40;97.20;;;;;;5093913;28;20894;-72
2021/03/08 12:48:00;;;;;;;34.40;20.77;;;9.50;96.80;;;;;;5094014;28;20493;-72
2021/03/08 12:50:26;;;;;;;32.07;22.37;;;9.60;96.20;;;;;;5068556;28;20437;-72